Terminal Aerodrome Forecast
Issued by NWS Lake Charles, LA

Home | Current Version | Previous Version | Text Only | Print | Product List | Glossary On
Versions: 1 2 3 4 5 6 7 8 9 10 11 12 13 14 15
000
FTUS44 KLCH 241735
TAFARA
TAF
KARA 241735Z 2418/2518 16010KT P6SM SKC
     FM250800 17008KT 5SM BR OVC012
     FM251000 19005KT 4SM BR OVC006
     FM251500 22008KT 5SM BR VCSH OVC015=

USA.gov is the U.S. government's official web portal to all federal, state and local government web resources and services.